sensor_id;sensor_type;location;lat;lon;timestamp;P1;durP1;ratioP1;P2;durP2;ratioP2
69678;SDS011;56915;52.046;4.854;2023-04-21T00:01:25;20.90;;;10.20;;
69678;SDS011;56915;52.046;4.854;2023-04-21T00:03:52;24.38;;;11.32;;
69678;SDS011;56915;52.046;4.854;2023-04-21T00:06:20;24.85;;;11.77;;
69678;SDS011;56915;52.046;4.854;2023-04-21T00:08:48;23.58;;;10.70;;
69678;SDS011;56915;52.046;4.854;2023-04-21T00:11:16;22.33;;;11.55;;
69678;SDS011;56915;52.046;4.854;2023-04-21T00:13:43;23.17;;;11.53;;
69678;SDS011;56915;52.046;4.854;2023-04-21T00:16:10;19.95;;;10.73;;
69678;SDS011;56915;52.046;4.854;2023-04-21T00:18:37;24.83;;;11.88;;
69678;SDS011;56915;52.046;4.854;2023-04-21T00:21:04;24.10;;;11.27;;
69678;SDS011;56915;52.046;4.854;2023-04-21T00:23:31;20.85;;;10.68;;
69678;SDS011;56915;52.046;4.854;2023-04-21T00:25:58;25.57;;;11.57;;
69678;SDS011;56915;52.046;4.854;2023-04-21T00:28:28;26.25;;;11.65;;
69678;SDS011;56915;52.046;4.854;2023-04-21T00:30:55;21.95;;;11.38;;
69678;SDS011;56915;52.046;4.854;2023-04-21T00:33:22;23.73;;;11.23;;
69678;SDS011;56915;52.046;4.854;2023-04-21T00:35:49;23.35;;;11.18;;
69678;SDS011;56915;52.046;4.854;2023-04-21T00:38:15;23.67;;;11.50;;
69678;SDS011;56915;52.046;4.854;2023-04-21T00:40:42;23.00;;;11.00;;
69678;SDS011;56915;52.046;4.854;2023-04-21T00:43:09;22.90;;;11.38;;
69678;SDS011;56915;52.046;4.854;2023-04-21T00:45:36;24.48;;;11.85;;
69678;SDS011;56915;52.046;4.854;2023-04-21T00:48:02;24.92;;;12.15;;
69678;SDS011;56915;52.046;4.854;2023-04-21T00:50:30;25.70;;;12.07;;
69678;SDS011;56915;52.046;4.854;2023-04-21T00:52:58;28.20;;;12.18;;
69678;SDS011;56915;52.046;4.854;2023-04-21T00:55:25;25.40;;;11.63;;
69678;SDS011;56915;52.046;4.854;2023-04-21T00:57:52;26.30;;;12.73;;
69678;SDS011;56915;52.046;4.854;2023-04-21T01:00:21;25.00;;;12.73;;
69678;SDS011;56915;52.046;4.854;2023-04-21T01:02:48;26.53;;;12.50;;
69678;SDS011;56915;52.046;4.854;2023-04-21T01:05:16;23.63;;;11.98;;
69678;SDS011;56915;52.046;4.854;2023-04-21T01:07:43;25.42;;;12.23;;
69678;SDS011;56915;52.046;4.854;2023-04-21T01:10:10;26.67;;;12.68;;
69678;SDS011;56915;52.046;4.854;2023-04-21T01:12:41;27.63;;;12.85;;
69678;SDS011;56915;52.046;4.854;2023-04-21T01:15:10;27.17;;;12.60;;
69678;SDS011;56915;52.046;4.854;2023-04-21T01:17:37;27.35;;;12.68;;
69678;SDS011;56915;52.046;4.854;2023-04-21T01:20:06;26.60;;;12.50;;
69678;SDS011;56915;52.046;4.854;2023-04-21T01:22:36;28.58;;;12.77;;
69678;SDS011;56915;52.046;4.854;2023-04-21T01:25:04;30.23;;;12.77;;
69678;SDS011;56915;52.046;4.854;2023-04-21T01:27:31;27.00;;;12.57;;
69678;SDS011;56915;52.046;4.854;2023-04-21T01:29:58;27.15;;;12.93;;
69678;SDS011;56915;52.046;4.854;2023-04-21T01:32:25;28.42;;;12.68;;
69678;SDS011;56915;52.046;4.854;2023-04-21T01:34:57;28.55;;;13.05;;
69678;SDS011;56915;52.046;4.854;2023-04-21T01:37:26;29.50;;;13.45;;
69678;SDS011;56915;52.046;4.854;2023-04-21T01:39:56;28.43;;;13.33;;
69678;SDS011;56915;52.046;4.854;2023-04-21T01:42:25;30.55;;;13.38;;
69678;SDS011;56915;52.046;4.854;2023-04-21T01:44:53;28.20;;;12.35;;
69678;SDS011;56915;52.046;4.854;2023-04-21T01:47:21;27.70;;;12.40;;
69678;SDS011;56915;52.046;4.854;2023-04-21T01:49:48;27.58;;;12.63;;
69678;SDS011;56915;52.046;4.854;2023-04-21T01:52:15;27.67;;;12.70;;
69678;SDS011;56915;52.046;4.854;2023-04-21T01:54:42;28.02;;;12.40;;
69678;SDS011;56915;52.046;4.854;2023-04-21T01:57:09;31.23;;;13.32;;
69678;SDS011;56915;52.046;4.854;2023-04-21T01:59:36;31.52;;;13.40;;
69678;SDS011;56915;52.046;4.854;2023-04-21T02:02:04;33.47;;;13.23;;
69678;SDS011;56915;52.046;4.854;2023-04-21T02:04:31;29.00;;;13.17;;
69678;SDS011;56915;52.046;4.854;2023-04-21T02:06:58;30.80;;;13.80;;
69678;SDS011;56915;52.046;4.854;2023-04-21T02:09:25;33.20;;;14.00;;
69678;SDS011;56915;52.046;4.854;2023-04-21T02:11:52;31.67;;;14.25;;
69678;SDS011;56915;52.046;4.854;2023-04-21T02:14:20;30.50;;;13.65;;
69678;SDS011;56915;52.046;4.854;2023-04-21T02:16:47;31.00;;;13.90;;
69678;SDS011;56915;52.046;4.854;2023-04-21T02:19:14;32.85;;;13.82;;
69678;SDS011;56915;52.046;4.854;2023-04-21T02:21:41;33.90;;;14.13;;
69678;SDS011;56915;52.046;4.854;2023-04-21T02:24:08;33.90;;;14.52;;
69678;SDS011;56915;52.046;4.854;2023-04-21T02:26:34;34.42;;;14.45;;
69678;SDS011;56915;52.046;4.854;2023-04-21T02:29:01;35.23;;;14.83;;
69678;SDS011;56915;52.046;4.854;2023-04-21T02:31:28;32.47;;;14.68;;
69678;SDS011;56915;52.046;4.854;2023-04-21T02:33:55;33.08;;;15.07;;
69678;SDS011;56915;52.046;4.854;2023-04-21T02:36:22;35.35;;;14.63;;
69678;SDS011;56915;52.046;4.854;2023-04-21T02:38:49;34.28;;;14.13;;
69678;SDS011;56915;52.046;4.854;2023-04-21T02:41:16;36.67;;;14.83;;
69678;SDS011;56915;52.046;4.854;2023-04-21T02:43:43;34.60;;;14.32;;
69678;SDS011;56915;52.046;4.854;2023-04-21T02:46:09;35.83;;;14.85;;
69678;SDS011;56915;52.046;4.854;2023-04-21T02:48:36;35.85;;;15.07;;
69678;SDS011;56915;52.046;4.854;2023-04-21T02:51:03;35.78;;;15.07;;
69678;SDS011;56915;52.046;4.854;2023-04-21T02:53:30;34.57;;;14.93;;
69678;SDS011;56915;52.046;4.854;2023-04-21T02:55:57;35.85;;;14.93;;
69678;SDS011;56915;52.046;4.854;2023-04-21T02:58:23;40.75;;;15.05;;
69678;SDS011;56915;52.046;4.854;2023-04-21T03:00:50;38.25;;;15.80;;
69678;SDS011;56915;52.046;4.854;2023-04-21T03:03:17;36.17;;;15.00;;
69678;SDS011;56915;52.046;4.854;2023-04-21T03:05:44;40.83;;;15.47;;
69678;SDS011;56915;52.046;4.854;2023-04-21T03:08:11;40.33;;;15.95;;
69678;SDS011;56915;52.046;4.854;2023-04-21T03:10:38;40.50;;;16.27;;
69678;SDS011;56915;52.046;4.854;2023-04-21T03:13:05;40.13;;;15.60;;
69678;SDS011;56915;52.046;4.854;2023-04-21T03:15:32;38.08;;;16.13;;
69678;SDS011;56915;52.046;4.854;2023-04-21T03:17:59;41.20;;;15.97;;
69678;SDS011;56915;52.046;4.854;2023-04-21T03:20:26;42.55;;;16.15;;
69678;SDS011;56915;52.046;4.854;2023-04-21T03:22:53;44.38;;;16.42;;
69678;SDS011;56915;52.046;4.854;2023-04-21T03:25:20;45.25;;;16.23;;
69678;SDS011;56915;52.046;4.854;2023-04-21T03:27:47;43.13;;;16.30;;
69678;SDS011;56915;52.046;4.854;2023-04-21T03:30:13;44.17;;;15.97;;
69678;SDS011;56915;52.046;4.854;2023-04-21T03:32:40;43.85;;;16.38;;
69678;SDS011;56915;52.046;4.854;2023-04-21T03:35:07;44.90;;;17.08;;
69678;SDS011;56915;52.046;4.854;2023-04-21T03:37:34;44.35;;;15.85;;
69678;SDS011;56915;52.046;4.854;2023-04-21T03:40:01;45.70;;;17.38;;
69678;SDS011;56915;52.046;4.854;2023-04-21T03:42:31;43.67;;;16.40;;
69678;SDS011;56915;52.046;4.854;2023-04-21T03:45:01;45.63;;;16.00;;
69678;SDS011;56915;52.046;4.854;2023-04-21T03:47:32;42.47;;;16.67;;
69678;SDS011;56915;52.046;4.854;2023-04-21T03:49:59;40.58;;;16.38;;
69678;SDS011;56915;52.046;4.854;2023-04-21T03:52:28;45.92;;;16.95;;
69678;SDS011;56915;52.046;4.854;2023-04-21T03:54:54;43.33;;;16.53;;
69678;SDS011;56915;52.046;4.854;2023-04-21T03:57:21;45.38;;;16.83;;
69678;SDS011;56915;52.046;4.854;2023-04-21T03:59:48;39.78;;;15.27;;
69678;SDS011;56915;52.046;4.854;2023-04-21T04:02:15;47.15;;;16.98;;
69678;SDS011;56915;52.046;4.854;2023-04-21T04:04:42;46.70;;;17.42;;
69678;SDS011;56915;52.046;4.854;2023-04-21T04:07:09;43.60;;;16.80;;
69678;SDS011;56915;52.046;4.854;2023-04-21T04:09:36;40.92;;;16.63;;
69678;SDS011;56915;52.046;4.854;2023-04-21T04:12:02;45.08;;;17.98;;
69678;SDS011;56915;52.046;4.854;2023-04-21T04:14:29;44.90;;;16.60;;
69678;SDS011;56915;52.046;4.854;2023-04-21T04:17:03;47.28;;;17.40;;
69678;SDS011;56915;52.046;4.854;2023-04-21T04:19:30;47.13;;;17.60;;
69678;SDS011;56915;52.046;4.854;2023-04-21T04:21:58;45.42;;;16.20;;
69678;SDS011;56915;52.046;4.854;2023-04-21T04:24:26;43.88;;;16.73;;
69678;SDS011;56915;52.046;4.854;2023-04-21T04:26:53;44.05;;;17.50;;
69678;SDS011;56915;52.046;4.854;2023-04-21T04:29:20;44.30;;;17.20;;
69678;SDS011;56915;52.046;4.854;2023-04-21T04:31:48;44.20;;;16.97;;
69678;SDS011;56915;52.046;4.854;2023-04-21T04:34:16;46.42;;;17.75;;
69678;SDS011;56915;52.046;4.854;2023-04-21T04:36:43;44.33;;;16.83;;
69678;SDS011;56915;52.046;4.854;2023-04-21T04:39:10;45.97;;;16.85;;
69678;SDS011;56915;52.046;4.854;2023-04-21T04:41:37;43.33;;;16.80;;
69678;SDS011;56915;52.046;4.854;2023-04-21T04:44:04;43.13;;;17.50;;
69678;SDS011;56915;52.046;4.854;2023-04-21T04:46:32;44.95;;;18.30;;
69678;SDS011;56915;52.046;4.854;2023-04-21T04:49:00;46.63;;;18.13;;
69678;SDS011;56915;52.046;4.854;2023-04-21T04:51:27;47.22;;;17.95;;
69678;SDS011;56915;52.046;4.854;2023-04-21T04:53:54;47.65;;;18.00;;
69678;SDS011;56915;52.046;4.854;2023-04-21T04:56:20;47.07;;;18.37;;
69678;SDS011;56915;52.046;4.854;2023-04-21T04:58:48;46.90;;;17.70;;
69678;SDS011;56915;52.046;4.854;2023-04-21T05:01:15;46.00;;;17.48;;
69678;SDS011;56915;52.046;4.854;2023-04-21T05:03:43;48.28;;;18.08;;
69678;SDS011;56915;52.046;4.854;2023-04-21T05:06:10;41.50;;;16.90;;
69678;SDS011;56915;52.046;4.854;2023-04-21T05:08:39;42.23;;;17.07;;
69678;SDS011;56915;52.046;4.854;2023-04-21T05:11:06;42.00;;;16.48;;
69678;SDS011;56915;52.046;4.854;2023-04-21T05:13:34;41.35;;;16.98;;
69678;SDS011;56915;52.046;4.854;2023-04-21T05:16:04;39.88;;;16.13;;
69678;SDS011;56915;52.046;4.854;2023-04-21T05:18:32;38.92;;;17.05;;
69678;SDS011;56915;52.046;4.854;2023-04-21T05:20:59;40.73;;;16.20;;
69678;SDS011;56915;52.046;4.854;2023-04-21T05:23:26;41.67;;;16.52;;
69678;SDS011;56915;52.046;4.854;2023-04-21T05:25:53;41.80;;;16.50;;
69678;SDS011;56915;52.046;4.854;2023-04-21T05:28:20;40.78;;;16.60;;
69678;SDS011;56915;52.046;4.854;2023-04-21T05:30:46;42.60;;;16.98;;
69678;SDS011;56915;52.046;4.854;2023-04-21T05:33:17;40.57;;;17.00;;
69678;SDS011;56915;52.046;4.854;2023-04-21T05:35:44;39.42;;;16.95;;
69678;SDS011;56915;52.046;4.854;2023-04-21T05:38:11;41.15;;;16.67;;
69678;SDS011;56915;52.046;4.854;2023-04-21T05:40:38;40.35;;;16.50;;
69678;SDS011;56915;52.046;4.854;2023-04-21T05:43:05;41.33;;;16.60;;
69678;SDS011;56915;52.046;4.854;2023-04-21T05:45:31;36.13;;;16.83;;
69678;SDS011;56915;52.046;4.854;2023-04-21T05:47:58;38.13;;;17.27;;
69678;SDS011;56915;52.046;4.854;2023-04-21T05:50:25;39.20;;;16.98;;
69678;SDS011;56915;52.046;4.854;2023-04-21T05:52:59;36.92;;;16.80;;
69678;SDS011;56915;52.046;4.854;2023-04-21T05:55:26;39.67;;;17.27;;
69678;SDS011;56915;52.046;4.854;2023-04-21T05:57:53;39.10;;;17.43;;
69678;SDS011;56915;52.046;4.854;2023-04-21T06:00:20;40.33;;;17.67;;
69678;SDS011;56915;52.046;4.854;2023-04-21T06:02:47;40.97;;;18.20;;
69678;SDS011;56915;52.046;4.854;2023-04-21T06:05:14;40.38;;;18.33;;
69678;SDS011;56915;52.046;4.854;2023-04-21T06:07:41;41.00;;;18.30;;
69678;SDS011;56915;52.046;4.854;2023-04-21T06:10:09;40.73;;;18.30;;
69678;SDS011;56915;52.046;4.854;2023-04-21T06:12:36;40.05;;;18.65;;
69678;SDS011;56915;52.046;4.854;2023-04-21T06:15:03;39.83;;;18.65;;
69678;SDS011;56915;52.046;4.854;2023-04-21T06:17:31;39.85;;;18.33;;
69678;SDS011;56915;52.046;4.854;2023-04-21T06:19:57;40.72;;;18.48;;
69678;SDS011;56915;52.046;4.854;2023-04-21T06:22:24;42.43;;;18.53;;
69678;SDS011;56915;52.046;4.854;2023-04-21T06:24:52;42.83;;;18.60;;
69678;SDS011;56915;52.046;4.854;2023-04-21T06:27:19;39.55;;;17.90;;
69678;SDS011;56915;52.046;4.854;2023-04-21T06:29:46;37.35;;;18.23;;
69678;SDS011;56915;52.046;4.854;2023-04-21T06:32:13;41.85;;;19.30;;
69678;SDS011;56915;52.046;4.854;2023-04-21T06:34:39;36.13;;;17.77;;
69678;SDS011;56915;52.046;4.854;2023-04-21T06:37:06;40.08;;;18.92;;
69678;SDS011;56915;52.046;4.854;2023-04-21T06:39:33;41.30;;;19.15;;
69678;SDS011;56915;52.046;4.854;2023-04-21T06:41:59;38.28;;;18.92;;
69678;SDS011;56915;52.046;4.854;2023-04-21T06:44:27;39.38;;;18.85;;
69678;SDS011;56915;52.046;4.854;2023-04-21T06:46:55;41.27;;;18.53;;
69678;SDS011;56915;52.046;4.854;2023-04-21T06:49:22;39.80;;;19.08;;
69678;SDS011;56915;52.046;4.854;2023-04-21T06:51:55;40.10;;;18.85;;
69678;SDS011;56915;52.046;4.854;2023-04-21T06:54:22;38.40;;;19.20;;
69678;SDS011;56915;52.046;4.854;2023-04-21T06:56:49;38.42;;;19.40;;
69678;SDS011;56915;52.046;4.854;2023-04-21T06:59:16;35.07;;;18.00;;
69678;SDS011;56915;52.046;4.854;2023-04-21T07:01:43;37.25;;;18.85;;
69678;SDS011;56915;52.046;4.854;2023-04-21T07:04:10;35.50;;;19.17;;
69678;SDS011;56915;52.046;4.854;2023-04-21T07:06:37;36.33;;;18.33;;
69678;SDS011;56915;52.046;4.854;2023-04-21T07:09:04;37.55;;;19.30;;
69678;SDS011;56915;52.046;4.854;2023-04-21T07:11:31;36.33;;;18.70;;
69678;SDS011;56915;52.046;4.854;2023-04-21T07:13:58;37.38;;;19.35;;
69678;SDS011;56915;52.046;4.854;2023-04-21T07:16:27;35.00;;;18.45;;
69678;SDS011;56915;52.046;4.854;2023-04-21T07:18:55;35.75;;;18.20;;
69678;SDS011;56915;52.046;4.854;2023-04-21T07:21:22;37.40;;;19.05;;
69678;SDS011;56915;52.046;4.854;2023-04-21T07:23:48;34.57;;;18.23;;
69678;SDS011;56915;52.046;4.854;2023-04-21T07:26:16;35.70;;;19.38;;
69678;SDS011;56915;52.046;4.854;2023-04-21T07:28:43;37.42;;;19.42;;
69678;SDS011;56915;52.046;4.854;2023-04-21T07:31:10;36.35;;;19.17;;
69678;SDS011;56915;52.046;4.854;2023-04-21T07:33:37;34.45;;;19.02;;
69678;SDS011;56915;52.046;4.854;2023-04-21T07:36:03;36.97;;;19.60;;
69678;SDS011;56915;52.046;4.854;2023-04-21T07:38:31;37.72;;;20.50;;
69678;SDS011;56915;52.046;4.854;2023-04-21T07:40:58;36.10;;;19.45;;
69678;SDS011;56915;52.046;4.854;2023-04-21T07:43:25;37.72;;;19.98;;
69678;SDS011;56915;52.046;4.854;2023-04-21T07:45:52;35.42;;;20.05;;
69678;SDS011;56915;52.046;4.854;2023-04-21T07:48:19;38.10;;;20.53;;
69678;SDS011;56915;52.046;4.854;2023-04-21T07:50:46;36.45;;;19.90;;
69678;SDS011;56915;52.046;4.854;2023-04-21T07:53:15;37.70;;;19.70;;
69678;SDS011;56915;52.046;4.854;2023-04-21T07:55:42;37.25;;;20.17;;
69678;SDS011;56915;52.046;4.854;2023-04-21T07:58:08;33.30;;;19.52;;
69678;SDS011;56915;52.046;4.854;2023-04-21T08:00:36;34.23;;;19.10;;
69678;SDS011;56915;52.046;4.854;2023-04-21T08:03:02;33.40;;;19.00;;
69678;SDS011;56915;52.046;4.854;2023-04-21T08:05:30;34.10;;;19.42;;
69678;SDS011;56915;52.046;4.854;2023-04-21T08:08:03;34.97;;;19.10;;
69678;SDS011;56915;52.046;4.854;2023-04-21T08:10:30;35.05;;;19.52;;
69678;SDS011;56915;52.046;4.854;2023-04-21T08:12:56;34.80;;;19.30;;
69678;SDS011;56915;52.046;4.854;2023-04-21T08:15:23;36.80;;;20.33;;
69678;SDS011;56915;52.046;4.854;2023-04-21T08:17:50;34.78;;;19.75;;
69678;SDS011;56915;52.046;4.854;2023-04-21T08:20:17;34.60;;;19.25;;
69678;SDS011;56915;52.046;4.854;2023-04-21T08:22:44;35.42;;;19.48;;
69678;SDS011;56915;52.046;4.854;2023-04-21T08:25:13;37.20;;;20.33;;
69678;SDS011;56915;52.046;4.854;2023-04-21T08:27:40;36.17;;;20.05;;
69678;SDS011;56915;52.046;4.854;2023-04-21T08:30:07;33.75;;;20.65;;
69678;SDS011;56915;52.046;4.854;2023-04-21T08:32:34;34.17;;;20.20;;
69678;SDS011;56915;52.046;4.854;2023-04-21T08:35:01;36.38;;;20.27;;
69678;SDS011;56915;52.046;4.854;2023-04-21T08:37:27;34.57;;;19.77;;
69678;SDS011;56915;52.046;4.854;2023-04-21T08:39:54;33.25;;;19.65;;
69678;SDS011;56915;52.046;4.854;2023-04-21T08:42:21;32.85;;;19.38;;
69678;SDS011;56915;52.046;4.854;2023-04-21T08:44:48;32.20;;;20.10;;
69678;SDS011;56915;52.046;4.854;2023-04-21T08:47:15;34.83;;;20.80;;
69678;SDS011;56915;52.046;4.854;2023-04-21T08:49:42;35.67;;;19.93;;
69678;SDS011;56915;52.046;4.854;2023-04-21T08:52:11;34.20;;;19.85;;
69678;SDS011;56915;52.046;4.854;2023-04-21T08:54:39;35.03;;;20.85;;
69678;SDS011;56915;52.046;4.854;2023-04-21T08:57:06;32.42;;;19.95;;
69678;SDS011;56915;52.046;4.854;2023-04-21T08:59:41;33.78;;;20.55;;
69678;SDS011;56915;52.046;4.854;2023-04-21T09:02:08;32.53;;;19.90;;
69678;SDS011;56915;52.046;4.854;2023-04-21T09:04:45;35.17;;;20.70;;
69678;SDS011;56915;52.046;4.854;2023-04-21T09:07:29;34.05;;;20.95;;
69678;SDS011;56915;52.046;4.854;2023-04-21T09:09:58;31.88;;;20.00;;
69678;SDS011;56915;52.046;4.854;2023-04-21T09:12:28;32.08;;;20.45;;
69678;SDS011;56915;52.046;4.854;2023-04-21T09:14:55;30.77;;;19.20;;
69678;SDS011;56915;52.046;4.854;2023-04-21T09:17:27;31.40;;;19.95;;
69678;SDS011;56915;52.046;4.854;2023-04-21T09:20:14;33.65;;;20.55;;
69678;SDS011;56915;52.046;4.854;2023-04-21T09:22:43;31.90;;;19.67;;
69678;SDS011;56915;52.046;4.854;2023-04-21T09:25:14;31.70;;;20.17;;
69678;SDS011;56915;52.046;4.854;2023-04-21T09:27:43;27.93;;;17.93;;
69678;SDS011;56915;52.046;4.854;2023-04-21T09:30:17;30.73;;;18.77;;
69678;SDS011;56915;52.046;4.854;2023-04-21T09:32:45;28.25;;;18.10;;
69678;SDS011;56915;52.046;4.854;2023-04-21T09:35:12;30.35;;;19.25;;
69678;SDS011;56915;52.046;4.854;2023-04-21T09:37:38;27.58;;;18.08;;
69678;SDS011;56915;52.046;4.854;2023-04-21T09:40:11;29.40;;;18.80;;
69678;SDS011;56915;52.046;4.854;2023-04-21T09:42:40;29.65;;;17.63;;
69678;SDS011;56915;52.046;4.854;2023-04-21T09:45:10;29.17;;;18.17;;
69678;SDS011;56915;52.046;4.854;2023-04-21T09:47:40;27.50;;;17.92;;
69678;SDS011;56915;52.046;4.854;2023-04-21T09:50:10;26.75;;;17.73;;
69678;SDS011;56915;52.046;4.854;2023-04-21T09:52:38;25.90;;;17.20;;
69678;SDS011;56915;52.046;4.854;2023-04-21T09:55:09;26.63;;;17.17;;
69678;SDS011;56915;52.046;4.854;2023-04-21T10:00:40;25.65;;;16.85;;
69678;SDS011;56915;52.046;4.854;2023-04-21T10:03:08;25.00;;;16.60;;
69678;SDS011;56915;52.046;4.854;2023-04-21T10:05:37;24.60;;;16.73;;
69678;SDS011;56915;52.046;4.854;2023-04-21T10:08:08;25.17;;;16.90;;
69678;SDS011;56915;52.046;4.854;2023-04-21T10:10:37;24.23;;;16.85;;
69678;SDS011;56915;52.046;4.854;2023-04-21T10:13:05;23.02;;;16.15;;
69678;SDS011;56915;52.046;4.854;2023-04-21T10:15:33;24.50;;;17.27;;
69678;SDS011;56915;52.046;4.854;2023-04-21T10:18:22;23.70;;;16.50;;
69678;SDS011;56915;52.046;4.854;2023-04-21T10:20:50;22.98;;;16.23;;
69678;SDS011;56915;52.046;4.854;2023-04-21T10:26:13;24.23;;;16.65;;
69678;SDS011;56915;52.046;4.854;2023-04-21T10:28:55;22.38;;;15.68;;
69678;SDS011;56915;52.046;4.854;2023-04-21T10:31:33;21.23;;;15.23;;
69678;SDS011;56915;52.046;4.854;2023-04-21T10:34:17;19.98;;;14.85;;
69678;SDS011;56915;52.046;4.854;2023-04-21T10:39:31;20.20;;;14.70;;
69678;SDS011;56915;52.046;4.854;2023-04-21T10:44:41;20.37;;;13.97;;
69678;SDS011;56915;52.046;4.854;2023-04-21T10:47:08;20.13;;;14.18;;
69678;SDS011;56915;52.046;4.854;2023-04-21T10:49:37;21.20;;;14.50;;
69678;SDS011;56915;52.046;4.854;2023-04-21T10:52:08;17.63;;;13.98;;
69678;SDS011;56915;52.046;4.854;2023-04-21T10:57:09;19.27;;;13.83;;
69678;SDS011;56915;52.046;4.854;2023-04-21T10:59:37;17.60;;;13.18;;
69678;SDS011;56915;52.046;4.854;2023-04-21T11:02:10;17.13;;;12.77;;
69678;SDS011;56915;52.046;4.854;2023-04-21T11:04:37;17.42;;;13.20;;
69678;SDS011;56915;52.046;4.854;2023-04-21T11:07:09;18.67;;;13.18;;
69678;SDS011;56915;52.046;4.854;2023-04-21T11:09:37;18.70;;;13.50;;
69678;SDS011;56915;52.046;4.854;2023-04-21T11:12:05;15.85;;;12.60;;
69678;SDS011;56915;52.046;4.854;2023-04-21T11:14:37;17.38;;;12.98;;
69678;SDS011;56915;52.046;4.854;2023-04-21T11:17:09;16.60;;;12.18;;
69678;SDS011;56915;52.046;4.854;2023-04-21T11:19:38;16.30;;;12.23;;
69678;SDS011;56915;52.046;4.854;2023-04-21T11:22:05;16.23;;;12.47;;
69678;SDS011;56915;52.046;4.854;2023-04-21T11:24:32;16.65;;;12.68;;
69678;SDS011;56915;52.046;4.854;2023-04-21T11:26:59;16.45;;;12.60;;
69678;SDS011;56915;52.046;4.854;2023-04-21T11:29:27;17.10;;;13.00;;
69678;SDS011;56915;52.046;4.854;2023-04-21T11:31:54;20.25;;;13.93;;
69678;SDS011;56915;52.046;4.854;2023-04-21T11:34:21;16.13;;;12.27;;
69678;SDS011;56915;52.046;4.854;2023-04-21T11:36:50;16.10;;;11.38;;
69678;SDS011;56915;52.046;4.854;2023-04-21T11:39:18;17.85;;;11.68;;
69678;SDS011;56915;52.046;4.854;2023-04-21T11:41:48;15.65;;;11.18;;
69678;SDS011;56915;52.046;4.854;2023-04-21T11:44:32;15.63;;;11.82;;
69678;SDS011;56915;52.046;4.854;2023-04-21T11:47:16;17.47;;;12.83;;
69678;SDS011;56915;52.046;4.854;2023-04-21T11:49:53;15.75;;;11.95;;
69678;SDS011;56915;52.046;4.854;2023-04-21T11:57:38;15.27;;;10.98;;
69678;SDS011;56915;52.046;4.854;2023-04-21T12:00:07;12.33;;;9.30;;
69678;SDS011;56915;52.046;4.854;2023-04-21T12:02:39;12.95;;;10.30;;
69678;SDS011;56915;52.046;4.854;2023-04-21T12:05:07;13.35;;;10.27;;
69678;SDS011;56915;52.046;4.854;2023-04-21T12:07:36;14.50;;;10.75;;
69678;SDS011;56915;52.046;4.854;2023-04-21T12:10:08;15.23;;;10.98;;
69678;SDS011;56915;52.046;4.854;2023-04-21T12:12:40;17.00;;;11.03;;
69678;SDS011;56915;52.046;4.854;2023-04-21T12:15:09;15.15;;;11.57;;
69678;SDS011;56915;52.046;4.854;2023-04-21T12:17:43;15.25;;;11.00;;
69678;SDS011;56915;52.046;4.854;2023-04-21T12:20:17;15.18;;;11.35;;
69678;SDS011;56915;52.046;4.854;2023-04-21T12:22:49;14.82;;;11.02;;
69678;SDS011;56915;52.046;4.854;2023-04-21T12:25:17;15.60;;;11.60;;
69678;SDS011;56915;52.046;4.854;2023-04-21T12:27:56;16.75;;;12.65;;
69678;SDS011;56915;52.046;4.854;2023-04-21T12:30:24;19.48;;;13.85;;
69678;SDS011;56915;52.046;4.854;2023-04-21T12:32:51;19.45;;;13.57;;
69678;SDS011;56915;52.046;4.854;2023-04-21T12:38:37;19.53;;;14.30;;
69678;SDS011;56915;52.046;4.854;2023-04-21T12:41:13;18.00;;;13.40;;
69678;SDS011;56915;52.046;4.854;2023-04-21T12:43:43;16.13;;;12.77;;
69678;SDS011;56915;52.046;4.854;2023-04-21T12:46:11;16.55;;;12.15;;
69678;SDS011;56915;52.046;4.854;2023-04-21T12:48:40;15.07;;;10.70;;
69678;SDS011;56915;52.046;4.854;2023-04-21T12:51:10;15.93;;;11.00;;
69678;SDS011;56915;52.046;4.854;2023-04-21T12:53:40;15.15;;;11.30;;
69678;SDS011;56915;52.046;4.854;2023-04-21T12:56:09;15.43;;;11.18;;
69678;SDS011;56915;52.046;4.854;2023-04-21T12:58:47;16.13;;;11.85;;
69678;SDS011;56915;52.046;4.854;2023-04-21T13:01:14;17.13;;;12.27;;
69678;SDS011;56915;52.046;4.854;2023-04-21T13:03:41;17.23;;;12.57;;
69678;SDS011;56915;52.046;4.854;2023-04-21T13:06:08;16.98;;;12.20;;
69678;SDS011;56915;52.046;4.854;2023-04-21T13:08:36;17.27;;;12.02;;
69678;SDS011;56915;52.046;4.854;2023-04-21T13:11:03;15.93;;;12.32;;
69678;SDS011;56915;52.046;4.854;2023-04-21T13:13:30;16.13;;;11.48;;
69678;SDS011;56915;52.046;4.854;2023-04-21T13:16:00;17.77;;;12.77;;
69678;SDS011;56915;52.046;4.854;2023-04-21T13:18:33;20.17;;;13.85;;
69678;SDS011;56915;52.046;4.854;2023-04-21T13:21:01;19.70;;;14.43;;
69678;SDS011;56915;52.046;4.854;2023-04-21T13:23:28;17.55;;;12.88;;
69678;SDS011;56915;52.046;4.854;2023-04-21T13:25:57;17.98;;;13.15;;
69678;SDS011;56915;52.046;4.854;2023-04-21T13:28:27;19.00;;;13.03;;
69678;SDS011;56915;52.046;4.854;2023-04-21T13:31:07;21.55;;;13.15;;
69678;SDS011;56915;52.046;4.854;2023-04-21T13:33:35;19.10;;;12.73;;
69678;SDS011;56915;52.046;4.854;2023-04-21T13:36:02;17.15;;;12.57;;
69678;SDS011;56915;52.046;4.854;2023-04-21T13:38:38;16.67;;;12.45;;
69678;SDS011;56915;52.046;4.854;2023-04-21T13:41:12;18.47;;;13.00;;
69678;SDS011;56915;52.046;4.854;2023-04-21T13:44:17;19.02;;;13.35;;
69678;SDS011;56915;52.046;4.854;2023-04-21T13:46:47;19.27;;;12.30;;
69678;SDS011;56915;52.046;4.854;2023-04-21T13:49:17;17.23;;;12.25;;
69678;SDS011;56915;52.046;4.854;2023-04-21T13:51:47;18.27;;;12.25;;
69678;SDS011;56915;52.046;4.854;2023-04-21T13:54:53;16.77;;;12.20;;
69678;SDS011;56915;52.046;4.854;2023-04-21T13:57:21;17.50;;;12.50;;
69678;SDS011;56915;52.046;4.854;2023-04-21T13:59:55;17.77;;;12.52;;
69678;SDS011;56915;52.046;4.854;2023-04-21T14:02:30;19.02;;;12.40;;
69678;SDS011;56915;52.046;4.854;2023-04-21T14:05:01;18.30;;;13.25;;
69678;SDS011;56915;52.046;4.854;2023-04-21T14:07:49;20.50;;;13.97;;
69678;SDS011;56915;52.046;4.854;2023-04-21T14:10:19;21.00;;;13.43;;
69678;SDS011;56915;52.046;4.854;2023-04-21T14:12:46;21.58;;;14.55;;
69678;SDS011;56915;52.046;4.854;2023-04-21T14:15:14;20.42;;;13.23;;
69678;SDS011;56915;52.046;4.854;2023-04-21T14:17:41;20.65;;;14.15;;
69678;SDS011;56915;52.046;4.854;2023-04-21T14:20:08;19.73;;;14.00;;
69678;SDS011;56915;52.046;4.854;2023-04-21T14:22:37;20.55;;;14.30;;
69678;SDS011;56915;52.046;4.854;2023-04-21T14:25:07;21.63;;;14.55;;
69678;SDS011;56915;52.046;4.854;2023-04-21T14:28:00;19.52;;;14.00;;
69678;SDS011;56915;52.046;4.854;2023-04-21T14:31:16;21.80;;;14.40;;
69678;SDS011;56915;52.046;4.854;2023-04-21T14:34:02;20.83;;;14.23;;
69678;SDS011;56915;52.046;4.854;2023-04-21T14:36:36;22.85;;;15.10;;
69678;SDS011;56915;52.046;4.854;2023-04-21T14:39:09;21.42;;;14.57;;
69678;SDS011;56915;52.046;4.854;2023-04-21T14:41:39;21.85;;;14.63;;
69678;SDS011;56915;52.046;4.854;2023-04-21T14:44:44;20.40;;;14.80;;
69678;SDS011;56915;52.046;4.854;2023-04-21T14:50:13;22.38;;;15.15;;
69678;SDS011;56915;52.046;4.854;2023-04-21T14:52:43;21.38;;;15.02;;
69678;SDS011;56915;52.046;4.854;2023-04-21T14:55:35;22.55;;;15.02;;
69678;SDS011;56915;52.046;4.854;2023-04-21T15:02:47;22.80;;;15.60;;